This is the latest recevied weather packets stored in our database for station/object YO9FTR-10. If no packets are shown the sender has not sent any weather packets the latest 1 day(s).
| Time | Temp. | Humidity | Pressure | Rain* | Wind** | Luminosity | Snow |
|---|---|---|---|---|---|---|---|
| 1778108406 | 8.33° C | 89% | 1021.6 hPa | - | - | - | - |
| 1778105697 | 8.33° C | 89% | 1021.6 hPa | - | - | - | - |
| 1778102989 | 8.89° C | 90% | 1021.7 hPa | - | - | - | - |
| 1778100281 | 8.89° C | 92% | 1021.8 hPa | - | - | - | - |
| 1778094864 | 11.11° C | 86% | 1021.5 hPa | - | - | - | - |
| 1778093058 | 11.67° C | 85% | 1021 hPa | - | - | - | - |
| 1778090350 | 12.78° C | 79% | 1020.5 hPa | - | - | - | - |
| 1778087642 | 16.11° C | 59% | 1020 hPa | - | - | - | - |
| 1778085836 | 18.89° C | 51% | 1019.8 hPa | - | - | - | - |
| 1778083128 | 20° C | 47% | 1019.3 hPa | - | - | - | - |
| 1778080420 | 20° C | 46% | 1019.5 hPa | - | - | - | - |
| 1778078614 | 21.67° C | 43% | 1019.7 hPa | - | - | - | - |
| 1778075906 | 22.22° C | 42% | 1019.8 hPa | - | - | - | - |
| 1778075003 | 22.22° C | 40% | 1019.8 hPa | - | - | - | - |
| 1778073197 | 22.78° C | 40% | 1019.8 hPa | - | - | - | - |
| 1778070489 | 21.67° C | 43% | 1020.1 hPa | - | - | - | - |
| 1778066877 | 21.67° C | 42% | 1020.2 hPa | - | - | - | - |
| 1778065072 | 21.67° C | 41% | 1020.2 hPa | - | - | - | - |
| 1778064169 | 22.22° C | 41% | 1020.4 hPa | - | - | - | - |
| 1778062364 | 21.11° C | 44% | 1020.5 hPa | - | - | - | - |
| 1778061461 | 22.22° C | 41% | 1020.5 hPa | - | - | - | - |
| 1778059655 | 20.56° C | 46% | 1020.6 hPa | - | - | - | - |
| 1778058752 | 21.67° C | 45% | 1020.6 hPa | - | - | - | - |
| 1778056947 | 20° C | 47% | 1020.6 hPa | - | - | - | - |
| 1778056044 | 21.11° C | 47% | 1020.5 hPa | - | - | - | - |
* Rain since midnight (hover to see other rain measurements)
** Current wind speed in m/s (hover to see current wind gust speed)